^^
MeteoGriva-Weather Station Historical Data
Daily Summary for August 2, 2020 Units:  English    Metric   Both
Daily Weekly Monthly Yearly Custom
  High: Low: Average:
Temperature: 51.4 °F 30.9 °F 38.1 °F
Dew Point: 32.5 °F 20.5 °F 25.2 °F
Humidity: 73.8% 44.1% 60%
Wind Speed: 0.4mph 0mph 0mph
Wind Gust: 4.9mph - -
Wind- - South
Pressure: 30.5 in 30.3 in -
Precipitation: 0 in    
Historical Graphs
 
 
Tabular Data for August 2, 2020
Time Temperature Dew Point Pressure Wind Wind Speed Wind Gust Humidity Rainfall Rate (Hourly) solar
00:04 38.3 °F 24.4 °F 30.4 in East 0.2 mph 4.9 mph 57% 0 in 0 W/m2
00:09 38.3 °F 24.4 °F 30.4 in East 0.1 mph 2.5 mph 57.1% 0 in 0 W/m2
00:14 38.3 °F 24.8 °F 30.4 in ENE 0.1 mph 2.5 mph 58% 0 in 0 W/m2
00:19 37.9 °F 24.4 °F 30.4 in Calm   2.5 mph 58% 0 in 0 W/m2
00:24 37.8 °F 24.3 °F 30.4 in Calm     58% 0 in 0 W/m2
00:29 37.8 °F 24.8 °F 30.4 in Calm     58.9% 0 in 0 W/m2
00:34 37.6 °F 24.4 °F 30.4 in West 0.1 mph 2.5 mph 58.5% 0 in 0 W/m2
00:39 37 °F 23.9 °F 30.4 in WSW 0.1 mph 2.5 mph 58.8% 0 in 0 W/m2
00:44 36.7 °F 23.5 °F 30.4 in East 0.2 mph 2.5 mph 58.5% 0 in 0 W/m2
00:49 36.9 °F 23.4 °F 30.4 in Calm     57.8% 0 in 0 W/m2
00:54 36.9 °F 23.5 °F 30.4 in Calm     58.2% 0 in 0 W/m2
00:59 36.5 °F 23.5 °F 30.4 in Calm     59% 0 in 0 W/m2
01:04 36.1 °F 23.4 °F 30.4 in Calm     59.3% 0 in 0 W/m2
01:09 36.1 °F 23.4 °F 30.4 in ENE 0.2 mph 2.5 mph 59.3% 0 in 0 W/m2
01:14 36.3 °F 23.4 °F 30.4 in Calm     59% 0 in 0 W/m2
01:19 35.8 °F 23.5 °F 30.4 in Calm     60.6% 0 in 0 W/m2
01:24 35.4 °F 23.5 °F 30.4 in Calm     61.4% 0 in 0 W/m2
01:29 35.2 °F 23.5 °F 30.4 in Calm     61.9% 0 in 0 W/m2
01:34 35.2 °F 23.2 °F 30.4 in Calm     61% 0 in 0 W/m2
01:39 35.6 °F 23 °F 30.4 in Calm     60% 0 in 0 W/m2
01:44 35.6 °F 23.5 °F 30.4 in Calm     60.9% 0 in 0 W/m2
01:49 35.6 °F 23.5 °F 30.4 in Calm     61% 0 in 0 W/m2
01:54 35.4 °F 23.4 °F 30.4 in Calm     61% 0 in 0 W/m2
01:59 35.4 °F 23.2 °F 30.4 in Calm     60.4% 0 in 0 W/m2
02:04 35.4 °F 23.4 °F 30.4 in Calm     60.9% 0 in 0 W/m2
02:09 35.4 °F 23.4 °F 30.4 in Calm     61.1% 0 in 0 W/m2
02:14 35.2 °F 23.7 °F 30.4 in Calm     62.4% 0 in 0 W/m2
02:19 34.5 °F 23.4 °F 30.4 in Calm     63.8% 0 in 0 W/m2
02:24 33.8 °F 22.6 °F 30.4 in Calm     63.3% 0 in 0 W/m2
02:29 33.6 °F 22.8 °F 30.4 in Calm     64% 0 in 0 W/m2
02:34 33.6 °F 23.2 °F 30.4 in Calm     65% 0 in 0 W/m2
02:39 33.3 °F 23.4 °F 30.4 in Calm     66.3% 0 in 0 W/m2
02:44 32.9 °F 22.8 °F 30.4 in Calm     65.9% 0 in 0 W/m2
02:49 32.9 °F 22.5 °F 30.4 in Calm     64.8% 0 in 0 W/m2
02:54 33.1 °F 21.9 °F 30.4 in Calm     62.9% 0 in 0 W/m2
02:59 33.3 °F 21.9 °F 30.4 in Calm     62.4% 0 in 0 W/m2
03:04 33.4 °F 22.3 °F 30.4 in Calm     63.3% 0 in 0 W/m2
03:09 33.4 °F 22.1 °F 30.4 in Calm     62.9% 0 in 0 W/m2
03:14 33.4 °F 22.3 °F 30.4 in Calm     63% 0 in 0 W/m2
03:19 33.4 °F 22.6 °F 30.4 in Calm     63.6% 0 in 0 W/m2
03:24 33.4 °F 23 °F 30.4 in East 0.4 mph 4.9 mph 64.7% 0 in 0 W/m2
03:29 33.6 °F 22.5 °F 30.4 in Calm   4.9 mph 63.1% 0 in 0 W/m2
03:34 33.6 °F 22.3 °F 30.4 in Calm     62.6% 0 in 0 W/m2
03:39 33.6 °F 22.8 °F 30.4 in Calm     63.8% 0 in 0 W/m2
03:44 33.6 °F 22.6 °F 30.4 in Calm     63.5% 0 in 0 W/m2
03:49 33.6 °F 22.5 °F 30.4 in Calm     62.9% 0 in 0 W/m2
03:54 33.8 °F 22.5 °F 30.4 in Calm     63% 0 in 0 W/m2
03:59 33.8 °F 22.3 °F 30.4 in Calm     62.1% 0 in 0 W/m2
04:04 34 °F 22.5 °F 30.4 in Calm     62.4% 0 in 0 W/m2
04:09 33.8 °F 22.5 °F 30.4 in Calm     63% 0 in 0 W/m2
04:14 33.8 °F 22.6 °F 30.4 in Calm     63.4% 0 in 0 W/m2
04:19 33.6 °F 23 °F 30.4 in Calm     64.3% 0 in 0 W/m2
04:24 33.3 °F 23 °F 30.4 in Calm     65.3% 0 in 0 W/m2
04:29 33.3 °F 23.4 °F 30.4 in Calm     66.6% 0 in 0 W/m2
04:34 33.1 °F 23.4 °F 30.4 in Calm     67.3% 0 in 0 W/m2
04:39 32.9 °F 23.5 °F 30.4 in Calm     68.1% 0 in 0 W/m2
04:44 32.5 °F 23.4 °F 30.4 in Calm     68.8% 0 in 0 W/m2
04:49 32.5 °F 23 °F 30.4 in Calm     67.6% 0 in 0 W/m2
04:54 32.5 °F 23 °F 30.4 in Calm     67.6% 0 in 0 W/m2
04:59 32.4 °F 23 °F 30.4 in Calm     68% 0 in 0 W/m2
05:04 32.2 °F 22.8 °F 30.4 in Calm     68% 0 in 0 W/m2
05:09 32.2 °F 22.6 °F 30.4 in Calm     67.8% 0 in 0 W/m2
05:14 32.2 °F 22.5 °F 30.4 in Calm     67% 0 in 0 W/m2
05:19 32.2 °F 22.6 °F 30.4 in Calm     67.4% 0 in 0 W/m2
05:24 32.2 °F 22.6 °F 30.4 in Calm     67.4% 0 in 0 W/m2
05:29 32.2 °F 22.1 °F 30.4 in Calm     65.9% 0 in 0 W/m2
05:34 32.4 °F 22.1 °F 30.4 in Calm     65.6% 0 in 0 W/m2
05:39 32.4 °F 22.5 °F 30.4 in Calm     66% 0 in 0 W/m2
05:44 32.4 °F 22.5 °F 30.4 in Calm     66.4% 0 in 0 W/m2
05:49 32.4 °F 22.8 °F 30.4 in Calm     67.5% 0 in 0 W/m2
05:54 32.4 °F 23.2 °F 30.4 in Calm     68.6% 0 in 0 W/m2
05:59 32.4 °F 23.2 °F 30.4 in Calm     68.6% 0 in 0 W/m2
06:04 32 °F 23.2 °F 30.4 in Calm     69.3% 0 in 0 W/m2
06:09 32 °F 23.4 °F 30.4 in Calm     70% 0 in 0 W/m2
06:14 32 °F 23 °F 30.4 in Calm     69.1% 0 in 0 W/m2
06:19 32 °F 22.8 °F 30.4 in Calm     68.4% 0 in 0 W/m2
06:24 32 °F 23 °F 30.4 in Calm     68.9% 0 in 0 W/m2
06:29 32 °F 23.5 °F 30.4 in Calm     70.4% 0 in 0 W/m2
06:34 31.8 °F 23.2 °F 30.4 in Calm     70% 0 in 0 W/m2
06:39 31.8 °F 23.2 °F 30.4 in Calm     69.9% 0 in 0 W/m2
06:44 31.8 °F 23 °F 30.4 in Calm     69.3% 0 in 0 W/m2
06:49 31.8 °F 23.4 °F 30.4 in Calm     70.5% 0 in 0 W/m2
06:54 31.8 °F 22.8 °F 30.4 in Calm     69.1% 0 in 0 W/m2
06:59 31.6 °F 23.2 °F 30.4 in Calm     70.3% 0 in 0 W/m2
07:04 30.9 °F 22.8 °F 30.4 in Calm     71.6% 0 in 0 W/m2
07:09 30.9 °F 23.4 °F 30.4 in Calm     73% 0 in 0 W/m2
07:11 30.9 °F 23.4 °F 30.4 in Calm     73.3% 0 in 0 W/m2
07:19 30.9 °F 23.5 °F 30.4 in Calm     73.8% 0 in 0 W/m2
07:24 30.9 °F 23.4 °F 30.4 in Calm     72.8% 0 in 0 W/m2
07:29 31.1 °F 23 °F 30.4 in Calm     71.3% 0 in 0 W/m2
07:34 31.3 °F 22.3 °F 30.4 in Calm     69% 0 in 0 W/m2
07:39 31.3 °F 22.5 °F 30.4 in Calm     69.3% 0 in 0 W/m2
07:44 31.6 °F 23 °F 30.4 in Calm     70% 0 in 0 W/m2
07:49 31.6 °F 22.8 °F 30.4 in Calm     69.6% 0 in 0 W/m2
07:54 31.6 °F 23.4 °F 30.4 in Calm     71% 0 in 0 W/m2
07:59 31.5 °F 23.4 °F 30.4 in Calm     71.6% 0 in 0 W/m2
08:04 31.3 °F 23.4 °F 30.4 in Calm     72% 0 in 3 W/m2
08:09 31.5 °F 23.2 °F 30.4 in Calm     70.9% 0 in 5 W/m2
08:14 31.6 °F 22.6 °F 30.4 in Calm     69.3% 0 in 9 W/m2
08:19 31.8 °F 22.5 °F 30.4 in Calm     67.8% 0 in 13 W/m2
08:24 33.4 °F 23.7 °F 30.4 in Calm     67.1% 0 in 19 W/m2
08:29 33.6 °F 23.5 °F 30.4 in Calm     66% 0 in 23 W/m2
08:32 33.8 °F 23.2 °F 30.4 in Calm     64.6% 0 in 26 W/m2
08:39 34.2 °F 23.5 °F 30.4 in Calm     65% 0 in 32 W/m2
08:44 34.9 °F 24.3 °F 30.4 in Calm     65.1% 0 in 36 W/m2
08:49 34.9 °F 24.8 °F 30.4 in Calm     66.7% 0 in 40 W/m2
08:54 34.9 °F 24.8 °F 30.4 in Calm     66.7% 0 in 44 W/m2
08:59 35.1 °F 24.8 °F 30.4 in Calm     65.9% 0 in 47 W/m2
09:04 36.1 °F 25.5 °F 30.4 in Calm     65% 0 in 50 W/m2
09:09 36.3 °F 25.7 °F 30.4 in Calm     65.1% 0 in 53 W/m2
09:14 36.3 °F 26.1 °F 30.4 in Calm     66% 0 in 56 W/m2
09:19 36.5 °F 26.1 °F 30.4 in Calm     65.6% 0 in 58 W/m2
09:24 37.9 °F 27.1 °F 30.4 in Calm     64.7% 0 in 61 W/m2
09:29 38.1 °F 27.3 °F 30.4 in Calm     65% 0 in 63 W/m2
09:34 37.9 °F 28.2 °F 30.4 in Calm     67.6% 0 in 65 W/m2
09:39 37.9 °F 28.4 °F 30.4 in Calm     68% 0 in 68 W/m2
09:44 37.9 °F 28.6 °F 30.4 in Calm     68.4% 0 in 74 W/m2
09:49 37.9 °F 28.8 °F 30.4 in Calm     68.6% 0 in 85 W/m2
09:54 38.1 °F 28.8 °F 30.4 in Calm     68.7% 0 in 96 W/m2
09:59 38.3 °F 29.1 °F 30.4 in SSW 0.1 mph 2.5 mph 69.7% 0 in 109 W/m2
10:04 38.7 °F 29.7 °F 30.4 in Calm   2.5 mph 69.8% 0 in 124 W/m2
10:09 38.8 °F 28.9 °F 30.5 in Calm     67.6% 0 in 144 W/m2
10:14 39.2 °F 28.8 °F 30.5 in Calm     66% 0 in 161 W/m2
10:19 39.6 °F 28 °F 30.4 in Calm     63.2% 0 in 180 W/m2
10:24 40.5 °F 29.8 °F 30.4 in NW 0.2 mph 2.5 mph 65.4% 0 in 197 W/m2
10:29 40.8 °F 30.7 °F 30.5 in SW 0.2 mph 2.5 mph 66.9% 0 in 214 W/m2
10:34 40.8 °F 30.2 °F 30.5 in SW 0.1 mph 2.5 mph 65.2% 0 in 231 W/m2
10:39 41 °F 29.7 °F 30.4 in Calm     63.7% 0 in 247 W/m2
10:44 42.1 °F 29.7 °F 30.4 in Calm     61.1% 0 in 260 W/m2
10:49 42.3 °F 30.4 °F 30.4 in SSW 0.4 mph 4.9 mph 62.3% 0 in 272 W/m2
10:54 42.4 °F 30.6 °F 30.4 in Calm   2.5 mph 62.6% 0 in 279 W/m2
10:59 42.4 °F 30 °F 30.4 in Calm   2.5 mph 61.2% 0 in 288 W/m2
11:04 42.8 °F 29.8 °F 30.4 in Calm     59.8% 0 in 294 W/m2
11:09 43 °F 30.4 °F 30.4 in Calm   2.5 mph 60.8% 0 in 299 W/m2
11:14 43 °F 30 °F 30.5 in Calm     60.1% 0 in 302 W/m2
11:19 43 °F 29.8 °F 30.4 in Calm     59.7% 0 in 309 W/m2
11:24 43.9 °F 30.4 °F 30.4 in Calm   2.5 mph 58.8% 0 in 313 W/m2
11:29 44.6 °F 30.7 °F 30.4 in Calm   2.5 mph 58% 0 in 317 W/m2
11:34 44.6 °F 30.6 °F 30.4 in Calm     57.8% 0 in 321 W/m2
11:39 44.6 °F 30.6 °F 30.4 in Calm     57.7% 0 in 324 W/m2
11:44 45.1 °F 30.9 °F 30.4 in Calm   2.5 mph 57% 0 in 327 W/m2
11:49 45.5 °F 31.1 °F 30.4 in Calm   2.5 mph 56.8% 0 in 329 W/m2
11:54 45.5 °F 30.7 °F 30.4 in SSE 0.1 mph 2.5 mph 56.1% 0 in 331 W/m2
11:59 45.5 °F 30.7 °F 30.4 in Calm   2.5 mph 56% 0 in 332 W/m2
12:04 45.9 °F 30.6 °F 30.4 in Calm     55.1% 0 in 334 W/m2
12:09 46.2 °F 30.6 °F 30.4 in SSE 0.2 mph 2.5 mph 54% 0 in 337 W/m2
12:14 46.2 °F 30.4 °F 30.4 in Calm   2.5 mph 53.4% 0 in 338 W/m2
12:19 46.4 °F 30.4 °F 30.4 in Calm   2.5 mph 53.4% 0 in 337 W/m2
12:24 45.9 °F 30.4 °F 30.4 in Calm   2.5 mph 54.7% 0 in 336 W/m2
12:29 45.3 °F 29.5 °F 30.4 in Calm     53.3% 0 in 337 W/m2
12:34 45.7 °F 28.8 °F 30.4 in Calm     51.4% 0 in 339 W/m2
12:39 46 °F 28.9 °F 30.4 in Calm     51% 0 in 339 W/m2
12:44 46.9 °F 30.2 °F 30.4 in SSW 0.1 mph 4.9 mph 52% 0 in 339 W/m2
12:49 47.1 °F 30.4 °F 30.4 in Calm   4.9 mph 51.9% 0 in 338 W/m2
12:54 47.1 °F 30.2 °F 30.4 in Calm   4.9 mph 51.8% 0 in 338 W/m2
12:59 47.3 °F 29.8 °F 30.4 in Calm   2.5 mph 50.4% 0 in 338 W/m2
13:04 48.4 °F 30.2 °F 30.4 in Calm   2.5 mph 49.2% 0 in 340 W/m2
13:09 49.5 °F 30.7 °F 30.4 in Calm     48.3% 0 in 341 W/m2
13:14 49.3 °F 31.1 °F 30.4 in Calm     49.4% 0 in 341 W/m2
13:19 49.3 °F 30.7 °F 30.4 in Calm   2.5 mph 48.7% 0 in 339 W/m2
13:24 49.5 °F 30.7 °F 30.4 in Calm     48.6% 0 in 338 W/m2
13:29 49.5 °F 30.7 °F 30.4 in Calm     48.2% 0 in 337 W/m2
13:34 49.5 °F 30.7 °F 30.4 in Calm     48.4% 0 in 335 W/m2
13:39 49.5 °F 30.6 °F 30.4 in Calm     48% 0 in 333 W/m2
13:44 49.6 °F 30.7 °F 30.4 in WSW 0.1 mph 2.5 mph 48.1% 0 in 332 W/m2
13:49 49.6 °F 30.9 °F 30.4 in Calm   2.5 mph 48.2% 0 in 330 W/m2
13:54 49.6 °F 31.1 °F 30.4 in Calm     48.7% 0 in 329 W/m2
13:59 49.5 °F 30.9 °F 30.4 in Calm     48.7% 0 in 324 W/m2
14:04 48.2 °F 30.2 °F 30.4 in Calm     49.7% 0 in 322 W/m2
14:09 46.2 °F 28.9 °F 30.4 in Calm     50.6% 0 in 318 W/m2
14:14 46.4 °F 28.6 °F 30.4 in Calm     49.6% 0 in 318 W/m2
14:19 46.8 °F 28.4 °F 30.4 in Calm     48.6% 0 in 317 W/m2
14:24 46.6 °F 29.5 °F 30.4 in Calm     50.8% 0 in 313 W/m2
14:29 45.9 °F 29.3 °F 30.4 in Calm     52% 0 in 308 W/m2
14:34 46 °F 28.9 °F 30.4 in Calm     51.1% 0 in 305 W/m2
14:39 46 °F 29.5 °F 30.3 in Calm     52.3% 0 in 304 W/m2
14:44 45.9 °F 28.8 °F 30.4 in Calm     50.8% 0 in 301 W/m2
14:49 45.9 °F 28.9 °F 30.4 in Calm     51.4% 0 in 293 W/m2
14:54 46 °F 28.4 °F 30.4 in Calm     50% 0 in 292 W/m2
14:59 46.2 °F 27.7 °F 30.4 in Calm     47.9% 0 in 287 W/m2
15:04 48.2 °F 27.3 °F 30.3 in Calm     44.1% 0 in 283 W/m2
15:09 51.4 °F 30.4 °F 30.3 in Calm     44.4% 0 in 278 W/m2
15:14 51.3 °F 30.9 °F 30.3 in Calm     45.8% 0 in 270 W/m2
15:19 51.1 °F 31.5 °F 30.3 in Calm     46.9% 0 in 264 W/m2
15:24 50.5 °F 31.1 °F 30.3 in Calm     47.1% 0 in 254 W/m2
15:29 48.9 °F 30.9 °F 30.3 in Calm     49.8% 0 in 238 W/m2
15:34 48.4 °F 32.2 °F 30.3 in Calm     53.7% 0 in 44 W/m2
15:39 47.5 °F 32.5 °F 30.3 in Calm     55.7% 0 in 39 W/m2
15:44 46.4 °F 32 °F 30.3 in Calm     57% 0 in 36 W/m2
15:49 43 °F 29.1 °F 30.3 in Calm     57.8% 0 in 34 W/m2
15:54 43 °F 29.3 °F 30.3 in Calm     57.9% 0 in 33 W/m2
15:59 42.8 °F 29.3 °F 30.3 in Calm     58.7% 0 in 31 W/m2
16:04 42.4 °F 29.5 °F 30.3 in Calm     59.7% 0 in 29 W/m2
16:09 41.4 °F 28.6 °F 30.3 in Calm     60% 0 in 28 W/m2
16:14 41.4 °F 28.8 °F 30.3 in Calm     60.4% 0 in 25 W/m2
16:19 41.2 °F 28.8 °F 30.3 in Calm     60.8% 0 in 23 W/m2
16:24 41.2 °F 28.4 °F 30.3 in Calm     60% 0 in 22 W/m2
16:29 40.1 °F 27.3 °F 30.3 in Calm     60% 0 in 20 W/m2
16:34 39.9 °F 27.3 °F 30.3 in Calm     60.6% 0 in 18 W/m2
16:39 39.9 °F 27.3 °F 30.3 in Calm     60.6% 0 in 16 W/m2
16:44 39.7 °F 28 °F 30.3 in Calm     62% 0 in 13 W/m2
16:49 39.4 °F 27.1 °F 30.3 in Calm     61.1% 0 in 11 W/m2
16:54 39.4 °F 27 °F 30.3 in Calm     60.6% 0 in 9 W/m2
16:59 39.4 °F 26.6 °F 30.3 in Calm     60% 0 in 6 W/m2
17:04 39.2 °F 26.4 °F 30.3 in Calm     60% 0 in 5 W/m2
17:09 38.8 °F 26.1 °F 30.3 in Calm     60% 0 in 2 W/m2
17:14 38.8 °F 26.4 °F 30.3 in Calm     60.7% 0 in 0 W/m2
17:19 38.7 °F 26.4 °F 30.3 in Calm     61% 0 in 0 W/m2
17:24 38.5 °F 26.2 °F 30.3 in Calm     61% 0 in 0 W/m2
17:29 37.8 °F 25.2 °F 30.3 in Calm     60.1% 0 in 0 W/m2
17:34 37.8 °F 24.8 °F 30.3 in Calm     59% 0 in 0 W/m2
17:39 37.8 °F 24.8 °F 30.3 in Calm     59.1% 0 in 0 W/m2
17:44 37.8 °F 24.8 °F 30.3 in Calm     59% 0 in 0 W/m2
17:49 37.2 °F 24.3 °F 30.3 in Calm     59.2% 0 in 0 W/m2
17:54 37 °F 23.9 °F 30.3 in Calm     58.5% 0 in 0 W/m2
17:59 37 °F 23.7 °F 30.3 in Calm     58% 0 in 0 W/m2
18:04 37 °F 23.7 °F 30.3 in Calm     58% 0 in 0 W/m2
18:09 37.4 °F 23.7 °F 30.3 in Calm     57.6% 0 in 0 W/m2
18:14 37.2 °F 23.7 °F 30.3 in Calm     57.9% 0 in 0 W/m2
18:19 37.2 °F 23.5 °F 30.3 in Calm     57.5% 0 in 0 W/m2
18:24 37.2 °F 23.5 °F 30.3 in Calm     57.2% 0 in 0 W/m2
18:29 37 °F 23.5 °F 30.4 in Calm     57.6% 0 in 0 W/m2
18:34 37 °F 23.7 °F 30.4 in Calm     58% 0 in 0 W/m2
18:39 37.2 °F 23.5 °F 30.4 in Calm   2.5 mph 57.7% 0 in 0 W/m2
18:44 37.2 °F 23.7 °F 30.4 in SSW 0.1 mph 2.5 mph 58% 0 in 0 W/m2
18:49 37.2 °F 23.7 °F 30.4 in Calm     57.8% 0 in 0 W/m2
18:54 37.4 °F 23.2 °F 30.4 in Calm     56.2% 0 in 0 W/m2
18:59 37.4 °F 23.2 °F 30.4 in Calm     56% 0 in 0 W/m2
19:04 37.2 °F 23.5 °F 30.4 in Calm     57.1% 0 in 0 W/m2
19:09 36.9 °F 22.8 °F 30.4 in Calm     56.8% 0 in 0 W/m2
19:14 36.7 °F 22.6 °F 30.4 in Calm     56.6% 0 in 0 W/m2
19:19 36.9 °F 22.8 °F 30.4 in Calm     56.7% 0 in 0 W/m2
19:24 37 °F 22.6 °F 30.4 in Calm     55.8% 0 in 0 W/m2
19:29 37.9 °F 23.2 °F 30.4 in Calm     55.1% 0 in 0 W/m2
19:34 38.1 °F 23.7 °F 30.4 in Calm     55.8% 0 in 0 W/m2
19:39 38.1 °F 23.2 °F 30.4 in Calm     54.7% 0 in 0 W/m2
19:44 37.9 °F 22.5 °F 30.4 in Calm     53.1% 0 in 0 W/m2
19:49 37.8 °F 21.2 °F 30.4 in Calm     51% 0 in 0 W/m2
19:54 37.6 °F 21.4 °F 30.4 in Calm     51.7% 0 in 0 W/m2
19:59 37.6 °F 21.6 °F 30.4 in Calm     52% 0 in 0 W/m2
20:04 37.6 °F 21.6 °F 30.4 in Calm     52% 0 in 0 W/m2
20:09 37.4 °F 21.4 °F 30.4 in Calm     51.9% 0 in 0 W/m2
20:14 37.4 °F 21.4 °F 30.4 in Calm     52% 0 in 0 W/m2
20:19 37.4 °F 20.8 °F 30.4 in Calm     51.1% 0 in 0 W/m2
20:24 37.4 °F 20.8 °F 30.4 in Calm     51% 0 in 0 W/m2
20:29 37.4 °F 21.2 °F 30.4 in Calm     51.6% 0 in 0 W/m2
20:34 37.4 °F 21 °F 30.4 in Calm     51.4% 0 in 0 W/m2
20:39 37.4 °F 21 °F 30.4 in Calm     51.3% 0 in 0 W/m2
20:44 37.4 °F 21.2 °F 30.4 in Calm     51.7% 0 in 0 W/m2
20:49 37 °F 21 °F 30.4 in Calm     52% 0 in 0 W/m2
20:54 36.9 °F 21.2 °F 30.4 in Calm     52.7% 0 in 0 W/m2
20:59 36.9 °F 21.6 °F 30.4 in Calm     53.6% 0 in 0 W/m2
21:04 36.7 °F 21.9 °F 30.4 in Calm     54.8% 0 in 0 W/m2
21:09 36.7 °F 21.7 °F 30.4 in Calm     54.3% 0 in 0 W/m2
21:14 36.7 °F 21.4 °F 30.4 in Calm     53.4% 0 in 0 W/m2
21:19 36.7 °F 21.6 °F 30.4 in Calm     54.1% 0 in 0 W/m2
21:24 36.7 °F 21.6 °F 30.4 in Calm     54% 0 in 0 W/m2
21:29 36.3 °F 21.2 °F 30.4 in Calm     53.8% 0 in 0 W/m2
21:34 36.1 °F 20.7 °F 30.4 in Calm     53% 0 in 0 W/m2
21:39 36.1 °F 20.8 °F 30.4 in Calm     53.6% 0 in 0 W/m2
21:44 36.1 °F 21 °F 30.4 in Calm     53.8% 0 in 0 W/m2
21:49 36.5 °F 21.2 °F 30.4 in Calm     53.5% 0 in 0 W/m2
21:54 36.9 °F 21.6 °F 30.4 in Calm     53.6% 0 in 0 W/m2
21:59 36.9 °F 21.4 °F 30.4 in Calm     53.2% 0 in 0 W/m2
22:04 36.9 °F 21.7 °F 30.4 in Calm     54% 0 in 0 W/m2
22:09 36.9 °F 22.3 °F 30.4 in Calm     55% 0 in 0 W/m2
22:14 36.7 °F 22.5 °F 30.4 in Calm     55.9% 0 in 0 W/m2
22:19 36.7 °F 22.6 °F 30.4 in Calm     57% 0 in 0 W/m2
22:24 36.5 °F 22.6 °F 30.4 in Calm     57% 0 in 0 W/m2
22:29 36 °F 22.1 °F 30.4 in Calm     56.9% 0 in 0 W/m2
22:34 35.8 °F 21.9 °F 30.4 in Calm     56.8% 0 in 0 W/m2
22:39 35.8 °F 22.1 °F 30.4 in Calm     57% 0 in 0 W/m2
22:44 35.8 °F 22.3 °F 30.4 in Calm     57.7% 0 in 0 W/m2
22:49 35.8 °F 22.1 °F 30.4 in Calm     57.2% 0 in 0 W/m2
22:54 36 °F 21.7 °F 30.4 in Calm     56% 0 in 0 W/m2
22:59 36 °F 21.7 °F 30.4 in Calm     56% 0 in 0 W/m2
23:04 36 °F 21.6 °F 30.4 in Calm     55.8% 0 in 0 W/m2
23:09 36 °F 21.6 °F 30.4 in Calm     55.4% 0 in 0 W/m2
23:14 36.1 °F 21.9 °F 30.4 in Calm     56% 0 in 0 W/m2
23:19 36.1 °F 21.9 °F 30.4 in Calm     56% 0 in 0 W/m2
23:24 36.1 °F 20.8 °F 30.4 in Calm     53.4% 0 in 0 W/m2
23:29 36.5 °F 20.5 °F 30.4 in Calm     52% 0 in 0 W/m2
23:34 36.9 °F 21.4 °F 30.4 in Calm     53% 0 in 0 W/m2
23:39 36.9 °F 21.4 °F 30.4 in Calm     53% 0 in 0 W/m2
23:44 36.9 °F 21.7 °F 30.4 in Calm     53.8% 0 in 0 W/m2
23:49 36.5 °F 22.3 °F 30.4 in Calm     56% 0 in 0 W/m2
23:54 35.6 °F 21.7 °F 30.4 in Calm     56.6% 0 in 0 W/m2
23:59 35.6 °F 22.3 °F 30.4 in Calm     57.8% 0 in 0 W/m2
Juneau County Weather
Compliments of Weather Underground - 2 mb